Time;durP1;ratioP1;P1;durP2;ratioP2;P2;SDS_P1;SDS_P2;PMS_P1;PMS_P2;Temp;Humidity;BMP_temperature;BMP_pressure;BME280_temperature;BME280_humidity;BME280_pressure;Samples;Min_cycle;Max_cycle;Signal;HPM_P1;HPM_P2
2021/12/20 00:02:20;;;;;;;54.00;25.83;;;;;;;;;;5003521;28;20797;-78
2021/12/20 00:04:51;;;;;;;52.80;26.57;;;;;;;;;;4999283;28;20431;-79
2021/12/20 00:07:18;;;;;;;52.57;26.90;;;;;;;;;;5004341;28;20720;-79
2021/12/20 00:09:45;;;;;;;49.80;25.97;;;;;;;;;;5003533;28;20550;-79
2021/12/20 00:12:11;;;;;;;61.80;28.27;;;;;;;;;;5004886;28;20455;-78
2021/12/20 00:14:37;;;;;;;54.00;26.73;;;;;;;;;;4985075;28;20486;-79
2021/12/20 00:17:07;;;;;;;55.67;27.77;;;;;;;;;;4987643;28;20435;-78
2021/12/20 00:19:34;;;;;;;61.57;29.67;;;;;;;;;;4981798;28;21305;-79
2021/12/20 00:22:01;;;;;;;61.20;30.30;;;;;;;;;;5003792;28;20524;-78
2021/12/20 00:24:27;;;;;;;61.23;31.37;;;;;;;;;;5002204;28;21359;-78
2021/12/20 00:26:54;;;;;;;57.60;31.10;;;;;;;;;;5002482;28;20430;-78
2021/12/20 00:29:21;;;;;;;57.57;31.03;;;;;;;;;;5018081;28;20424;-78
2021/12/20 00:31:47;;;;;;;64.13;33.80;;;;;;;;;;5004361;28;20485;-78
2021/12/20 00:34:14;;;;;;;63.53;33.50;;;;;;;;;;5001901;28;20488;-78
2021/12/20 00:36:40;;;;;;;66.73;33.97;;;;;;;;;;5004242;28;20510;-78
2021/12/20 00:41:51;;;;;;;61.27;32.83;;;;;;;;;;5002096;28;20493;-78
2021/12/20 00:44:18;;;;;;;61.77;32.00;;;;;;;;;;4983961;28;20997;-78
2021/12/20 00:46:44;;;;;;;63.10;32.90;;;;;;;;;;5002848;28;21010;-78
2021/12/20 00:49:11;;;;;;;64.90;33.47;;;;;;;;;;4989797;28;20482;-79
2021/12/20 00:51:37;;;;;;;64.10;35.53;;;;;;;;;;4987381;28;20515;-78
2021/12/20 00:54:04;;;;;;;73.53;38.10;;;;;;;;;;5003910;28;20439;-79
2021/12/20 00:56:31;;;;;;;67.47;38.70;;;;;;;;;;5002842;28;20415;-78
2021/12/20 00:58:57;;;;;;;75.20;38.80;;;;;;;;;;5006941;28;20419;-78
2021/12/20 01:01:24;;;;;;;80.00;41.07;;;;;;;;;;4990902;28;20443;-78
2021/12/20 01:03:51;;;;;;;68.97;38.07;;;;;;;;;;5005816;28;20609;-78
2021/12/20 01:06:18;;;;;;;75.97;40.13;;;;;;;;;;4990678;28;20538;-79
2021/12/20 01:08:46;;;;;;;76.60;40.30;;;;;;;;;;4989248;28;20431;-78
2021/12/20 01:11:19;;;;;;;81.83;43.93;;;;;;;;;;5009164;28;21393;-79
2021/12/20 01:13:46;;;;;;;79.73;41.73;;;;;;;;;;4989185;28;20419;-78
2021/12/20 01:16:13;;;;;;;86.80;45.90;;;;;;;;;;4988574;28;20434;-78
2021/12/20 01:18:40;;;;;;;79.00;44.17;;;;;;;;;;5021060;28;20705;-78
2021/12/20 01:21:08;;;;;;;77.37;43.77;;;;;;;;;;5004766;28;20423;-77
2021/12/20 01:23:36;;;;;;;84.67;46.23;;;;;;;;;;5007905;28;20427;-78
2021/12/20 01:26:03;;;;;;;90.07;47.50;;;;;;;;;;5008204;28;20959;-78
2021/12/20 01:28:29;;;;;;;95.33;50.20;;;;;;;;;;4992390;28;20554;-78
2021/12/20 01:30:56;;;;;;;86.70;48.23;;;;;;;;;;5003390;28;21262;-78
2021/12/20 01:33:23;;;;;;;92.87;49.63;;;;;;;;;;5019638;28;20454;-78
2021/12/20 01:35:49;;;;;;;96.73;49.80;;;;;;;;;;5002268;28;20434;-78
2021/12/20 01:38:15;;;;;;;90.63;51.17;;;;;;;;;;5001228;28;20435;-78
2021/12/20 01:40:42;;;;;;;87.67;47.53;;;;;;;;;;5003820;28;20497;-78
2021/12/20 01:43:11;;;;;;;96.43;50.43;;;;;;;;;;5004327;28;20522;-78
2021/12/20 01:45:37;;;;;;;91.70;50.83;;;;;;;;;;5003215;28;20435;-78
2021/12/20 01:48:10;;;;;;;92.50;51.57;;;;;;;;;;4983687;28;20446;-79
2021/12/20 01:53:15;;;;;;;97.70;53.20;;;;;;;;;;5004822;28;21384;-79
2021/12/20 01:55:42;;;;;;;106.87;55.80;;;;;;;;;;4981632;28;21235;-77
2021/12/20 01:58:08;;;;;;;107.20;56.03;;;;;;;;;;5000222;28;20456;-78
2021/12/20 02:00:36;;;;;;;95.77;53.20;;;;;;;;;;5001526;28;20439;-77
2021/12/20 02:03:10;;;;;;;103.40;57.10;;;;;;;;;;4979204;28;20429;-77
2021/12/20 02:08:18;;;;;;;101.47;55.30;;;;;;;;;;5001420;28;20505;-77
2021/12/20 02:10:45;;;;;;;105.37;58.43;;;;;;;;;;4983950;28;20808;-77
2021/12/20 02:13:12;;;;;;;106.47;57.90;;;;;;;;;;4983898;28;20432;-77
2021/12/20 02:15:39;;;;;;;109.93;59.03;;;;;;;;;;5001200;28;20431;-77
2021/12/20 02:18:05;;;;;;;108.80;61.57;;;;;;;;;;4999875;28;21094;-77
2021/12/20 02:20:33;;;;;;;101.27;57.70;;;;;;;;;;4999373;28;20427;-77
2021/12/20 02:23:01;;;;;;;106.67;57.97;;;;;;;;;;4980191;28;20435;-77
2021/12/20 02:25:28;;;;;;;103.33;56.67;;;;;;;;;;4984606;28;20434;-77
2021/12/20 02:27:58;;;;;;;95.20;55.40;;;;;;;;;;5001020;28;20426;-77
2021/12/20 02:38:28;;;;;;;88.80;49.40;;;;;;;;;;4998462;28;20418;-77
2021/12/20 02:41:00;;;;;;;94.50;50.17;;;;;;;;;;4996931;28;20533;-78
2021/12/20 02:43:28;;;;;;;83.63;46.93;;;;;;;;;;5013700;28;20870;-77
2021/12/20 02:46:00;;;;;;;84.23;43.77;;;;;;;;;;5014828;28;21047;-78
2021/12/20 02:48:26;;;;;;;75.00;43.37;;;;;;;;;;4977656;28;20792;-77
2021/12/20 02:50:57;;;;;;;79.00;43.10;;;;;;;;;;4999970;28;20443;-77
2021/12/20 02:53:46;;;;;;;81.40;45.30;;;;;;;;;;4998707;28;20407;-77
2021/12/20 02:56:16;;;;;;;77.13;43.03;;;;;;;;;;4981310;28;20416;-77
2021/12/20 02:58:43;;;;;;;77.97;43.80;;;;;;;;;;4978952;28;20543;-77
2021/12/20 03:01:12;;;;;;;71.93;42.10;;;;;;;;;;4982316;28;20430;-78
2021/12/20 03:03:38;;;;;;;77.03;42.43;;;;;;;;;;4982154;28;20423;-77
2021/12/20 03:06:09;;;;;;;74.50;40.80;;;;;;;;;;4981631;28;20419;-77
2021/12/20 03:08:40;;;;;;;82.67;43.67;;;;;;;;;;4973810;28;20434;-77
2021/12/20 03:11:06;;;;;;;76.93;41.83;;;;;;;;;;4982645;28;20503;-77
2021/12/20 03:13:39;;;;;;;79.77;43.77;;;;;;;;;;4997383;28;20420;-77
2021/12/20 03:16:06;;;;;;;82.10;43.43;;;;;;;;;;4981017;28;20427;-77
2021/12/20 03:18:32;;;;;;;84.30;42.73;;;;;;;;;;4994297;28;20534;-78
2021/12/20 03:21:02;;;;;;;76.30;41.03;;;;;;;;;;4998639;28;20493;-77
2021/12/20 03:23:29;;;;;;;81.63;44.93;;;;;;;;;;4981845;28;20433;-77
2021/12/20 03:25:55;;;;;;;79.73;43.47;;;;;;;;;;4997460;28;20908;-77
2021/12/20 03:28:23;;;;;;;88.17;45.70;;;;;;;;;;4995264;28;20455;-77
2021/12/20 03:30:50;;;;;;;81.50;44.57;;;;;;;;;;4976642;28;20448;-78
2021/12/20 03:33:16;;;;;;;91.07;48.40;;;;;;;;;;4975518;28;22250;-77
2021/12/20 03:35:45;;;;;;;73.10;42.47;;;;;;;;;;4980440;28;20565;-77
2021/12/20 03:38:12;;;;;;;76.50;43.07;;;;;;;;;;4994726;28;21042;-77
2021/12/20 03:40:39;;;;;;;84.90;44.30;;;;;;;;;;4998485;28;20424;-77
2021/12/20 03:43:09;;;;;;;75.93;42.33;;;;;;;;;;4977653;28;20419;-77
2021/12/20 03:45:37;;;;;;;76.83;42.33;;;;;;;;;;4975293;28;20411;-77
2021/12/20 03:48:04;;;;;;;84.07;43.63;;;;;;;;;;4998070;28;20504;-77
2021/12/20 03:50:35;;;;;;;90.00;48.67;;;;;;;;;;4979922;28;21390;-77
2021/12/20 03:53:04;;;;;;;89.90;49.30;;;;;;;;;;4998002;28;20428;-77
2021/12/20 03:55:33;;;;;;;104.63;53.53;;;;;;;;;;4980057;28;20526;-77
2021/12/20 03:58:00;;;;;;;111.73;62.43;;;;;;;;;;4997902;28;20415;-77
2021/12/20 04:00:27;;;;;;;103.93;58.07;;;;;;;;;;4993497;28;21775;-77
2021/12/20 04:02:55;;;;;;;110.37;58.87;;;;;;;;;;4981838;28;20529;-77
2021/12/20 04:05:22;;;;;;;126.03;67.43;;;;;;;;;;4997148;28;20419;-77
2021/12/20 04:07:49;;;;;;;141.17;71.67;;;;;;;;;;5000847;28;20443;-77
2021/12/20 04:10:15;;;;;;;133.33;72.10;;;;;;;;;;4979144;28;20525;-77
2021/12/20 04:12:42;;;;;;;131.67;74.10;;;;;;;;;;4997956;28;20430;-77
2021/12/20 04:15:09;;;;;;;134.83;74.23;;;;;;;;;;5011661;28;20427;-77
2021/12/20 04:17:38;;;;;;;123.50;68.33;;;;;;;;;;4980744;28;20427;-77
2021/12/20 04:20:11;;;;;;;127.40;71.40;;;;;;;;;;4973217;28;20427;-77
2021/12/20 04:22:38;;;;;;;141.60;77.43;;;;;;;;;;4999921;28;20507;-77
2021/12/20 04:25:07;;;;;;;138.87;75.03;;;;;;;;;;4980526;28;20431;-77
2021/12/20 04:27:34;;;;;;;113.63;67.50;;;;;;;;;;5011433;28;20434;-78
2021/12/20 04:30:09;;;;;;;141.30;76.30;;;;;;;;;;4994459;28;20577;-78
2021/12/20 04:32:36;;;;;;;126.20;70.60;;;;;;;;;;4985981;28;20454;-78
2021/12/20 04:35:03;;;;;;;123.87;68.63;;;;;;;;;;4984649;28;21318;-78
2021/12/20 04:37:30;;;;;;;124.13;69.10;;;;;;;;;;4984289;28;20951;-78
2021/12/20 04:39:57;;;;;;;118.37;68.33;;;;;;;;;;4985782;28;20684;-78
2021/12/20 04:42:24;;;;;;;100.83;58.47;;;;;;;;;;5018475;28;20416;-78
2021/12/20 04:44:50;;;;;;;120.27;67.13;;;;;;;;;;5001941;28;21288;-79
2021/12/20 04:47:18;;;;;;;105.40;61.33;;;;;;;;;;4999982;28;20528;-78
2021/12/20 04:49:44;;;;;;;114.97;63.90;;;;;;;;;;4984982;28;20470;-78
2021/12/20 04:52:11;;;;;;;111.27;64.90;;;;;;;;;;5002595;28;20466;-78
2021/12/20 04:54:37;;;;;;;115.07;62.83;;;;;;;;;;4983616;28;20448;-78
2021/12/20 04:57:04;;;;;;;110.40;62.47;;;;;;;;;;4984081;28;20500;-78
2021/12/20 04:59:30;;;;;;;118.17;64.40;;;;;;;;;;5001577;28;20423;-78
2021/12/20 05:01:57;;;;;;;114.10;64.80;;;;;;;;;;5003103;28;20477;-78
2021/12/20 05:04:23;;;;;;;115.60;63.27;;;;;;;;;;5000646;28;20415;-78
2021/12/20 05:06:50;;;;;;;113.93;64.80;;;;;;;;;;5002005;28;21032;-78
2021/12/20 05:09:18;;;;;;;104.23;59.30;;;;;;;;;;5000398;28;20524;-77
2021/12/20 05:11:50;;;;;;;116.73;64.83;;;;;;;;;;5001608;28;20455;-77
2021/12/20 05:14:16;;;;;;;113.20;62.47;;;;;;;;;;4998724;28;20442;-78
2021/12/20 05:16:43;;;;;;;116.60;64.63;;;;;;;;;;5000584;28;20906;-77
2021/12/20 05:19:09;;;;;;;103.60;60.33;;;;;;;;;;5003419;28;20688;-77
2021/12/20 05:21:36;;;;;;;113.57;63.13;;;;;;;;;;5001819;28;21492;-77
2021/12/20 05:24:02;;;;;;;121.00;68.57;;;;;;;;;;5000507;28;20419;-77
2021/12/20 05:26:29;;;;;;;116.90;65.13;;;;;;;;;;4985370;28;20489;-78
2021/12/20 05:28:55;;;;;;;106.77;62.13;;;;;;;;;;4984497;28;20432;-78
2021/12/20 05:31:22;;;;;;;121.90;66.93;;;;;;;;;;4985938;28;20451;-77
2021/12/20 05:33:49;;;;;;;131.07;71.30;;;;;;;;;;4999208;28;20481;-77
2021/12/20 05:36:15;;;;;;;114.07;64.73;;;;;;;;;;4980461;28;20490;-78
2021/12/20 05:38:42;;;;;;;120.03;67.10;;;;;;;;;;5000234;28;20420;-78
2021/12/20 05:41:08;;;;;;;136.70;73.63;;;;;;;;;;5002828;28;20505;-77
2021/12/20 05:43:37;;;;;;;127.87;70.13;;;;;;;;;;4998865;28;21064;-78
2021/12/20 05:46:06;;;;;;;137.53;74.43;;;;;;;;;;5000472;28;20419;-78
2021/12/20 05:48:33;;;;;;;125.23;70.07;;;;;;;;;;4984049;28;20509;-77
2021/12/20 05:50:59;;;;;;;124.97;69.23;;;;;;;;;;5001949;28;21306;-78
2021/12/20 05:53:29;;;;;;;143.73;76.40;;;;;;;;;;4997753;28;21406;-78
2021/12/20 05:55:58;;;;;;;136.87;76.87;;;;;;;;;;5000263;28;20477;-78
2021/12/20 05:58:31;;;;;;;140.83;77.67;;;;;;;;;;5001716;28;20431;-78
2021/12/20 06:00:57;;;;;;;132.43;72.77;;;;;;;;;;4984511;28;21056;-78
2021/12/20 06:03:27;;;;;;;126.97;71.03;;;;;;;;;;4999230;28;20427;-77
2021/12/20 06:05:54;;;;;;;125.73;69.93;;;;;;;;;;5003107;28;20419;-77
2021/12/20 06:08:22;;;;;;;122.47;67.23;;;;;;;;;;5001102;28;21129;-78
2021/12/20 06:10:49;;;;;;;145.20;76.23;;;;;;;;;;4982476;28;21105;-78
2021/12/20 06:13:15;;;;;;;135.33;73.47;;;;;;;;;;5001676;28;20435;-77
2021/12/20 06:15:41;;;;;;;137.27;76.23;;;;;;;;;;4982762;28;20442;-77
2021/12/20 06:18:07;;;;;;;123.13;69.43;;;;;;;;;;4999379;28;20419;-78
2021/12/20 06:20:34;;;;;;;120.93;65.97;;;;;;;;;;5001777;28;20483;-79
2021/12/20 06:23:01;;;;;;;135.73;74.00;;;;;;;;;;4980185;28;20431;-79
2021/12/20 06:25:27;;;;;;;126.67;69.57;;;;;;;;;;5001622;28;20411;-79
2021/12/20 06:27:57;;;;;;;128.23;72.03;;;;;;;;;;4980361;28;21086;-78
2021/12/20 06:30:30;;;;;;;116.03;66.97;;;;;;;;;;5000602;28;21432;-79
2021/12/20 06:33:07;;;;;;;121.57;66.47;;;;;;;;;;4980141;28;20516;-78
2021/12/20 06:35:35;;;;;;;114.17;64.43;;;;;;;;;;4967971;28;21290;-78
2021/12/20 06:38:17;;;;;;;130.77;73.77;;;;;;;;;;5000540;28;21042;-78
2021/12/20 06:40:48;;;;;;;130.63;72.30;;;;;;;;;;4978146;28;20423;-79
2021/12/20 06:43:15;;;;;;;112.50;64.70;;;;;;;;;;4984541;28;21308;-78
2021/12/20 06:45:45;;;;;;;127.00;70.80;;;;;;;;;;4991466;28;21021;-78
2021/12/20 06:48:22;;;;;;;107.00;60.97;;;;;;;;;;4996250;28;20517;-78
2021/12/20 06:50:48;;;;;;;124.50;66.10;;;;;;;;;;5001811;28;20538;-78
2021/12/20 06:53:18;;;;;;;111.87;65.67;;;;;;;;;;5001912;28;20424;-78
2021/12/20 06:55:55;;;;;;;109.03;61.33;;;;;;;;;;5016668;28;20435;-78
2021/12/20 06:58:31;;;;;;;141.00;76.40;;;;;;;;;;5003510;28;20419;-79
2021/12/20 07:01:01;;;;;;;120.23;67.63;;;;;;;;;;5011211;28;20423;-80
2021/12/20 07:07:08;;;;;;;137.47;76.43;;;;;;;;;;4945800;28;21414;-80
2021/12/20 07:09:40;;;;;;;123.27;69.30;;;;;;;;;;4930997;28;21122;-80
2021/12/20 07:15:41;;;;;;;135.83;74.63;;;;;;;;;;4946723;28;20402;-80
2021/12/20 07:27:25;;;;;;;115.33;68.33;;;;;;;;;;4869522;29;20672;-79
2021/12/20 07:30:02;;;;;;;;;;;;;;;;;;;;;
2021/12/20 07:33:05;;;;;;;135.03;73.53;;;;;;;;;;4946127;28;20504;-79
2021/12/20 07:36:26;;;;;;;119.93;66.37;;;;;;;;;;4853534;29;20472;-80
2021/12/20 07:48:10;;;;;;;104.83;60.60;;;;;;;;;;4815229;29;20475;-79
2021/12/20 07:54:16;;;;;;;101.20;56.17;;;;;;;;;;4850963;29;20422;-80
2021/12/20 07:57:26;;;;;;;94.40;53.60;;;;;;;;;;4846762;29;20434;-80
2021/12/20 08:06:08;;;;;;;102.17;60.07;;;;;;;;;;4912353;28;20436;-79
2021/12/20 08:09:03;;;;;;;95.20;55.57;;;;;;;;;;4910296;28;20434;-79
2021/12/20 08:24:16;;;;;;;91.47;54.80;;;;;;;;;;5005911;28;20427;-79
2021/12/20 08:27:36;;;;;;;91.27;54.17;;;;;;;;;;4988593;28;20512;-79
2021/12/20 09:07:59;;;;;;;73.43;45.27;;;;;;;;;;4940977;28;20429;-78
2021/12/20 09:13:56;;;;;;;63.73;41.47;;;;;;;;;;4973697;28;21113;-78
2021/12/20 09:19:54;;;;;;;69.27;42.27;;;;;;;;;;4992740;28;20437;-78
2021/12/20 09:25:43;;;;;;;66.53;42.33;;;;;;;;;;4983549;28;20424;-78
2021/12/20 09:28:45;;;;;;;67.83;44.50;;;;;;;;;;4924713;28;20465;-78
2021/12/20 09:31:44;;;;;;;67.70;43.37;;;;;;;;;;4852032;29;20466;-79
2021/12/20 09:35:11;;;;;;;67.80;42.67;;;;;;;;;;4986126;28;20412;-78
2021/12/20 09:37:38;;;;;;;73.43;44.53;;;;;;;;;;4995605;28;20415;-77
2021/12/20 09:40:12;;;;;;;74.00;45.13;;;;;;;;;;5004220;28;20423;-77
2021/12/20 09:42:53;;;;;;;69.37;45.20;;;;;;;;;;5009060;28;21398;-78
2021/12/20 09:48:19;;;;;;;76.93;46.60;;;;;;;;;;4995210;28;20419;-77
2021/12/20 09:50:48;;;;;;;70.47;46.60;;;;;;;;;;4987174;28;20567;-78
2021/12/20 09:53:18;;;;;;;70.13;45.07;;;;;;;;;;5003335;28;20439;-77
2021/12/20 09:55:49;;;;;;;70.80;46.03;;;;;;;;;;4988649;28;21179;-77
2021/12/20 09:58:18;;;;;;;71.03;47.30;;;;;;;;;;5001131;28;20432;-78
2021/12/20 10:01:17;;;;;;;72.37;48.37;;;;;;;;;;5020260;28;20420;-78
2021/12/20 10:03:47;;;;;;;79.17;51.17;;;;;;;;;;4979713;28;20484;-77
2021/12/20 10:06:14;;;;;;;77.27;50.90;;;;;;;;;;5002830;28;20423;-78
2021/12/20 10:08:52;;;;;;;81.70;55.03;;;;;;;;;;5003619;28;20487;-78
2021/12/20 10:11:26;;;;;;;82.30;52.73;;;;;;;;;;5005706;28;20457;-77
2021/12/20 10:14:16;;;;;;;77.70;50.17;;;;;;;;;;5005497;28;20427;-77
2021/12/20 10:16:48;;;;;;;77.63;51.33;;;;;;;;;;5005934;28;20961;-76
2021/12/20 10:26:11;;;;;;;74.03;45.80;;;;;;;;;;4914399;28;20562;-80
2021/12/20 10:32:21;;;;;;;;;;;;;;;;;;;;;
2021/12/20 10:34:37;;;;;;;74.83;44.23;;;;;;;;;;5002971;28;20416;-77
2021/12/20 10:37:13;;;;;;;68.13;43.13;;;;;;;;;;4989414;28;20509;-77
2021/12/20 10:39:58;;;;;;;69.73;43.87;;;;;;;;;;4987656;28;21711;-77
2021/12/20 10:42:27;;;;;;;66.13;40.90;;;;;;;;;;5001338;28;20574;-77
2021/12/20 10:45:09;;;;;;;72.50;44.23;;;;;;;;;;4985247;28;21398;-75
2021/12/20 10:47:36;;;;;;;78.73;45.60;;;;;;;;;;4983948;28;20415;-77
2021/12/20 10:50:21;;;;;;;73.53;43.10;;;;;;;;;;5001469;28;20481;-77
2021/12/20 10:52:48;;;;;;;69.00;41.13;;;;;;;;;;5004024;28;21391;-77
2021/12/20 10:55:15;;;;;;;69.77;43.50;;;;;;;;;;5005388;28;20427;-76
2021/12/20 10:57:41;;;;;;;74.93;43.83;;;;;;;;;;4984711;28;20423;-76
2021/12/20 11:00:27;;;;;;;76.70;46.00;;;;;;;;;;4986924;28;21138;-77
2021/12/20 11:03:19;;;;;;;70.03;42.00;;;;;;;;;;4985702;28;20427;-76
2021/12/20 11:11:30;;;;;;;68.03;42.60;;;;;;;;;;5004759;28;20441;-76
2021/12/20 11:13:59;;;;;;;71.00;43.13;;;;;;;;;;5002368;28;20416;-77
2021/12/20 11:16:28;;;;;;;74.97;44.00;;;;;;;;;;4988769;28;20435;-77
2021/12/20 11:19:07;;;;;;;68.87;41.87;;;;;;;;;;5002117;28;21637;-76
2021/12/20 11:21:36;;;;;;;74.43;43.67;;;;;;;;;;5002978;28;20454;-77
2021/12/20 11:24:03;;;;;;;74.37;45.17;;;;;;;;;;5001973;28;20481;-77
2021/12/20 11:26:29;;;;;;;74.07;42.73;;;;;;;;;;4982779;28;20439;-77
2021/12/20 11:28:57;;;;;;;73.47;42.77;;;;;;;;;;5004500;28;20424;-77
2021/12/20 11:31:25;;;;;;;72.33;44.10;;;;;;;;;;5004549;28;20447;-77
2021/12/20 11:33:51;;;;;;;70.17;40.60;;;;;;;;;;4985004;28;20428;-78
2021/12/20 11:36:18;;;;;;;73.23;43.03;;;;;;;;;;5003389;28;20788;-77
2021/12/20 11:38:45;;;;;;;73.40;42.30;;;;;;;;;;4984498;28;20435;-77
2021/12/20 11:41:12;;;;;;;70.10;42.10;;;;;;;;;;5003499;28;20446;-76
2021/12/20 11:43:41;;;;;;;68.60;42.03;;;;;;;;;;4983035;28;20500;-77
2021/12/20 11:46:08;;;;;;;75.10;42.93;;;;;;;;;;4983408;28;20466;-78
2021/12/20 11:48:38;;;;;;;69.50;40.90;;;;;;;;;;5000328;28;21132;-77
2021/12/20 11:51:04;;;;;;;69.73;42.00;;;;;;;;;;5002717;28;20451;-77
2021/12/20 11:53:40;;;;;;;60.87;35.70;;;;;;;;;;5016623;28;20419;-77
2021/12/20 11:56:07;;;;;;;68.93;41.40;;;;;;;;;;4999739;28;20514;-77
2021/12/20 11:58:35;;;;;;;75.37;42.87;;;;;;;;;;5002949;28;20426;-78
2021/12/20 12:01:03;;;;;;;70.67;41.73;;;;;;;;;;5003545;28;20422;-80
2021/12/20 12:03:31;;;;;;;75.60;44.30;;;;;;;;;;5002155;28;20430;-78
2021/12/20 12:06:02;;;;;;;71.30;39.97;;;;;;;;;;5002280;28;20431;-78
2021/12/20 12:08:39;;;;;;;72.60;38.60;;;;;;;;;;4984440;28;21204;-78
2021/12/20 12:11:08;;;;;;;74.60;38.97;;;;;;;;;;5003023;28;20462;-78
2021/12/20 12:13:48;;;;;;;75.23;38.83;;;;;;;;;;5002053;28;23038;-77
2021/12/20 12:16:27;;;;;;;79.90;38.23;;;;;;;;;;5003334;28;20485;-76
2021/12/20 12:18:54;;;;;;;83.60;39.07;;;;;;;;;;4985192;28;20508;-77
2021/12/20 12:21:33;;;;;;;78.53;39.17;;;;;;;;;;5000414;28;20462;-76
2021/12/20 12:24:10;;;;;;;78.63;38.93;;;;;;;;;;4980888;28;20835;-77
2021/12/20 12:26:47;;;;;;;92.60;43.93;;;;;;;;;;5001020;28;21030;-77
2021/12/20 12:29:16;;;;;;;80.53;40.63;;;;;;;;;;4999370;28;20505;-77
2021/12/20 12:32:03;;;;;;;79.73;40.00;;;;;;;;;;5000642;28;20486;-76
2021/12/20 12:34:40;;;;;;;86.50;40.33;;;;;;;;;;4981667;28;20431;-77
2021/12/20 12:37:19;;;;;;;103.00;42.37;;;;;;;;;;4999052;28;20629;-77
2021/12/20 12:39:46;;;;;;;93.97;40.70;;;;;;;;;;5001687;28;20925;-77
2021/12/20 12:42:13;;;;;;;80.77;37.47;;;;;;;;;;5013939;28;21104;-77
2021/12/20 12:44:48;;;;;;;96.93;40.60;;;;;;;;;;5015166;28;20440;-77
2021/12/20 12:47:14;;;;;;;95.80;40.67;;;;;;;;;;5002841;28;21255;-77
2021/12/20 12:49:42;;;;;;;90.13;39.93;;;;;;;;;;5001865;28;21328;-77
2021/12/20 12:52:29;;;;;;;100.33;40.63;;;;;;;;;;4985620;28;20502;-77
2021/12/20 12:55:06;;;;;;;92.97;39.43;;;;;;;;;;4986862;28;20439;-78
2021/12/20 12:57:35;;;;;;;90.53;39.80;;;;;;;;;;5004240;28;21347;-77
2021/12/20 13:00:13;;;;;;;111.53;43.17;;;;;;;;;;4987156;28;20411;-77
2021/12/20 13:02:40;;;;;;;98.13;40.33;;;;;;;;;;4986701;28;20528;-77
2021/12/20 13:05:13;;;;;;;101.90;39.83;;;;;;;;;;5004628;28;20555;-77
2021/12/20 13:07:47;;;;;;;102.10;39.53;;;;;;;;;;5002578;28;20462;-78
2021/12/20 13:10:41;;;;;;;117.37;41.17;;;;;;;;;;5006228;28;20434;-78
2021/12/20 13:15:58;;;;;;;111.37;41.77;;;;;;;;;;5006588;28;20730;-78
2021/12/20 13:18:33;;;;;;;111.30;39.17;;;;;;;;;;5003213;28;21395;-78
2021/12/20 13:21:04;;;;;;;118.63;39.60;;;;;;;;;;5006389;28;20526;-78
2021/12/20 13:23:39;;;;;;;106.23;39.97;;;;;;;;;;4984639;28;20463;-77
2021/12/20 13:26:06;;;;;;;98.23;36.07;;;;;;;;;;5002649;28;21439;-77
2021/12/20 13:28:37;;;;;;;118.77;39.43;;;;;;;;;;5004244;28;20545;-77
2021/12/20 13:31:07;;;;;;;99.23;36.57;;;;;;;;;;4988359;28;21383;-78
2021/12/20 13:33:51;;;;;;;101.33;36.20;;;;;;;;;;5005343;28;20531;-77
2021/12/20 13:36:19;;;;;;;100.87;36.27;;;;;;;;;;5005615;28;20427;-78
2021/12/20 13:38:54;;;;;;;105.20;36.87;;;;;;;;;;4983541;28;20556;-77
2021/12/20 13:41:29;;;;;;;119.47;39.97;;;;;;;;;;5004392;28;20920;-77
2021/12/20 13:44:01;;;;;;;127.57;40.93;;;;;;;;;;5004500;28;20522;-77
2021/12/20 13:49:05;;;;;;;116.50;38.30;;;;;;;;;;5003715;28;20514;-77
2021/12/20 13:51:39;;;;;;;100.63;38.20;;;;;;;;;;5000972;28;21477;-77
2021/12/20 13:54:15;;;;;;;109.27;38.20;;;;;;;;;;5004598;28;20419;-77
2021/12/20 13:56:43;;;;;;;108.23;37.80;;;;;;;;;;5003391;28;20422;-77
2021/12/20 13:59:10;;;;;;;113.50;38.13;;;;;;;;;;5004313;28;20462;-77
2021/12/20 14:01:39;;;;;;;101.73;37.30;;;;;;;;;;4985702;28;20435;-77
2021/12/20 14:04:05;;;;;;;99.07;35.43;;;;;;;;;;4981464;28;20467;-77
2021/12/20 14:06:37;;;;;;;99.37;35.77;;;;;;;;;;5003917;28;20438;-77
2021/12/20 14:09:06;;;;;;;123.33;39.97;;;;;;;;;;4983190;28;20604;-77
2021/12/20 14:11:32;;;;;;;97.87;35.30;;;;;;;;;;4990334;28;20497;-77
2021/12/20 14:14:09;;;;;;;102.53;36.63;;;;;;;;;;5006418;28;20466;-77
2021/12/20 14:16:54;;;;;;;100.53;36.27;;;;;;;;;;5003199;28;20430;-77
2021/12/20 14:19:20;;;;;;;112.73;37.53;;;;;;;;;;5002687;28;20427;-77
2021/12/20 14:21:47;;;;;;;97.87;35.47;;;;;;;;;;5005148;28;20411;-77
2021/12/20 14:24:14;;;;;;;103.87;38.87;;;;;;;;;;4985786;28;20422;-78
2021/12/20 14:26:40;;;;;;;104.63;38.50;;;;;;;;;;5005846;28;20415;-78
2021/12/20 14:29:10;;;;;;;96.07;37.50;;;;;;;;;;5005845;28;20497;-79
2021/12/20 14:31:52;;;;;;;101.73;38.77;;;;;;;;;;5004616;28;20994;-78
2021/12/20 14:34:30;;;;;;;97.23;37.27;;;;;;;;;;5015746;28;20431;-78
2021/12/20 14:37:06;;;;;;;92.87;37.73;;;;;;;;;;5003174;28;20425;-77
2021/12/20 14:39:41;;;;;;;103.60;39.60;;;;;;;;;;4989310;28;20415;-77
2021/12/20 14:42:07;;;;;;;106.07;40.23;;;;;;;;;;4978841;28;20473;-77
2021/12/20 14:44:44;;;;;;;106.63;38.90;;;;;;;;;;4984158;28;20432;-78
2021/12/20 14:47:17;;;;;;;106.07;39.67;;;;;;;;;;4986067;28;20522;-78
2021/12/20 14:50:05;;;;;;;104.60;40.07;;;;;;;;;;5005649;28;20556;-78
2021/12/20 14:52:39;;;;;;;109.60;41.57;;;;;;;;;;5004098;28;20453;-78
2021/12/20 14:55:11;;;;;;;105.93;40.17;;;;;;;;;;5002194;28;20451;-78
2021/12/20 14:57:37;;;;;;;104.17;40.53;;;;;;;;;;5004173;28;20447;-78
2021/12/20 15:00:08;;;;;;;104.53;41.43;;;;;;;;;;5005234;28;21313;-78
2021/12/20 15:02:39;;;;;;;108.60;42.70;;;;;;;;;;4986404;28;20439;-78
2021/12/20 15:05:06;;;;;;;102.33;40.70;;;;;;;;;;4968718;28;20443;-78
2021/12/20 15:07:34;;;;;;;103.17;40.67;;;;;;;;;;4984903;28;20433;-78
2021/12/20 15:10:00;;;;;;;98.47;40.87;;;;;;;;;;4985482;28;20471;-78
2021/12/20 15:12:27;;;;;;;103.50;41.30;;;;;;;;;;5004243;28;20542;-79
2021/12/20 15:14:53;;;;;;;104.50;39.57;;;;;;;;;;4985175;28;21299;-78
2021/12/20 15:17:20;;;;;;;106.80;40.97;;;;;;;;;;5001975;28;21142;-78
2021/12/20 15:19:46;;;;;;;115.23;42.97;;;;;;;;;;4984858;28;21329;-78
2021/12/20 15:22:13;;;;;;;108.37;43.53;;;;;;;;;;5018832;28;21095;-78
2021/12/20 15:24:39;;;;;;;101.57;42.53;;;;;;;;;;4985928;28;20654;-78
2021/12/20 15:27:06;;;;;;;104.47;43.23;;;;;;;;;;4985370;28;20428;-78
2021/12/20 15:29:33;;;;;;;116.13;44.43;;;;;;;;;;5002697;28;20454;-78
2021/12/20 15:32:00;;;;;;;115.77;44.57;;;;;;;;;;5000793;28;20466;-79
2021/12/20 15:34:29;;;;;;;104.90;43.40;;;;;;;;;;5006117;28;20411;-78
2021/12/20 15:36:59;;;;;;;108.50;45.77;;;;;;;;;;4996668;28;20423;-79
2021/12/20 15:39:25;;;;;;;106.87;46.20;;;;;;;;;;5000056;28;21253;-79
2021/12/20 15:42:02;;;;;;;131.13;47.63;;;;;;;;;;4984431;28;21085;-79
2021/12/20 15:44:30;;;;;;;118.13;46.57;;;;;;;;;;4985974;28;20472;-79
2021/12/20 15:46:57;;;;;;;124.10;47.17;;;;;;;;;;4998436;28;20516;-78
2021/12/20 15:49:23;;;;;;;126.50;49.73;;;;;;;;;;4987084;28;20436;-78
2021/12/20 15:51:50;;;;;;;134.57;49.40;;;;;;;;;;4988163;28;20459;-78
2021/12/20 15:54:16;;;;;;;129.90;49.43;;;;;;;;;;4985893;28;20416;-79
2021/12/20 15:56:45;;;;;;;139.50;48.63;;;;;;;;;;4986278;28;20415;-78
2021/12/20 15:59:11;;;;;;;133.47;48.63;;;;;;;;;;5001769;28;21348;-78
2021/12/20 16:01:38;;;;;;;139.90;50.87;;;;;;;;;;5001662;28;20470;-78
2021/12/20 16:04:05;;;;;;;136.80;50.57;;;;;;;;;;4998858;28;20450;-78
2021/12/20 16:06:31;;;;;;;129.57;49.10;;;;;;;;;;5002788;28;20462;-78
2021/12/20 16:09:00;;;;;;;120.73;46.97;;;;;;;;;;5002218;28;20521;-79
2021/12/20 16:11:27;;;;;;;138.13;50.07;;;;;;;;;;5003442;28;20572;-78
2021/12/20 16:13:53;;;;;;;125.57;48.13;;;;;;;;;;5000603;28;20502;-78
2021/12/20 16:16:19;;;;;;;121.60;44.90;;;;;;;;;;5002307;28;20428;-78
2021/12/20 16:18:46;;;;;;;118.87;46.40;;;;;;;;;;5002828;28;20427;-78
2021/12/20 16:21:14;;;;;;;124.63;47.70;;;;;;;;;;4995821;28;20455;-78
2021/12/20 16:23:40;;;;;;;127.53;48.63;;;;;;;;;;4982299;28;20561;-78
2021/12/20 16:26:07;;;;;;;134.23;47.63;;;;;;;;;;5002748;28;20513;-78
2021/12/20 16:28:33;;;;;;;127.00;45.57;;;;;;;;;;5000197;28;20439;-78
2021/12/20 16:30:59;;;;;;;121.90;45.87;;;;;;;;;;5005082;28;20435;-78
2021/12/20 16:33:32;;;;;;;116.70;44.97;;;;;;;;;;4985303;28;21389;-78
2021/12/20 16:35:59;;;;;;;127.30;46.70;;;;;;;;;;5002492;28;21127;-78
2021/12/20 16:38:26;;;;;;;124.77;46.80;;;;;;;;;;5020501;28;20431;-78
2021/12/20 16:40:52;;;;;;;113.30;44.60;;;;;;;;;;5021423;28;20435;-78
2021/12/20 16:43:19;;;;;;;118.93;46.67;;;;;;;;;;5001829;28;20427;-78
2021/12/20 16:48:20;;;;;;;106.83;46.10;;;;;;;;;;5002404;28;20442;-78
2021/12/20 16:50:47;;;;;;;107.57;44.90;;;;;;;;;;5001608;28;20438;-78
2021/12/20 16:53:14;;;;;;;108.77;45.70;;;;;;;;;;4999626;28;20477;-79